Weather at Concord Municipal Airport

Public forecast

Using degrees Fahrenheit for public forecast. Weather courtesy of forecast.io.

Current aviation weather report (METAR) for Concord Municipal Airport

Retrieved 2020/11/28 20:51 UTC (49 minutes ago):

KCON 282051Z AUTO 32005KT 10SM BKN080 OVC090 07/02 A2990 RMK AO2 PK WND 26028/1959 WSHFT 1954 RAB00E11 SLP128 P0000 60000 T00720017 53013

Aviation forecast (TAF) for Concord Municipal Airport

Retrieved 2020/11/28 18:22 UTC (3 hours ago):

TAF KCON 281720Z 2818/2918 VRB03KT P6SM BKN050 FM282200 30004KT P6SM SKC